Time;durP1;ratioP1;P1;durP2;ratioP2;P2;SDS_P1;SDS_P2;PMS_P1;PMS_P2;Temp;Humidity;BMP_temperature;BMP_pressure;BME280_temperature;BME280_humidity;BME280_pressure;Samples;Min_cycle;Max_cycle;Signal;HPM_P1;HPM_P2
2022/10/24 00:01:32;;;;;;;37.80;28.05;;;;;;;9.43;100.00;98813.66;2125203;84;21002;-89
2022/10/24 00:04:32;;;;;;;32.75;26.37;;;;;;;9.45;100.00;98823.44;2125192;84;20956;-90
2022/10/24 00:07:33;;;;;;;33.50;26.10;;;;;;;9.46;100.00;98818.04;2125363;84;21594;-89
2022/10/24 00:10:35;;;;;;;39.60;27.35;;;;;;;9.46;100.00;98821.14;2125281;84;21038;-89
2022/10/24 00:13:36;;;;;;;38.17;27.37;;;;;;;9.47;100.00;98820.16;2125245;84;21026;-90
2022/10/24 00:16:36;;;;;;;36.77;26.68;;;;;;;9.51;100.00;98822.73;2125626;84;21019;-89
2022/10/24 00:19:37;;;;;;;31.97;24.95;;;;;;;9.51;100.00;98822.73;2126088;84;21311;-88
2022/10/24 00:22:38;;;;;;;36.45;24.05;;;;;;;9.46;100.00;98819.84;2125893;84;21150;-86
2022/10/24 00:25:38;;;;;;;38.13;25.23;;;;;;;9.43;100.00;98809.73;2126433;84;20968;-87
2022/10/24 00:28:39;;;;;;;30.50;23.70;;;;;;;9.38;100.00;98799.77;2126163;84;21015;-88
2022/10/24 00:31:40;;;;;;;30.52;23.00;;;;;;;9.32;100.00;98795.21;2125497;84;21012;-87
2022/10/24 00:34:41;;;;;;;31.85;23.55;;;;;;;9.26;100.00;98794.11;2125252;83;21095;-88
2022/10/24 00:37:42;;;;;;;31.77;24.37;;;;;;;9.24;100.00;98793.97;2125212;84;21000;-89
2022/10/24 00:40:43;;;;;;;33.00;23.80;;;;;;;9.19;100.00;98792.33;2125385;84;20941;-89
2022/10/24 00:43:43;;;;;;;34.53;25.45;;;;;;;9.18;100.00;98792.02;2125322;84;20991;-89
2022/10/24 00:46:44;;;;;;;35.78;24.20;;;;;;;9.20;100.00;98792.66;2130299;83;21015;-84
2022/10/24 00:49:45;;;;;;;35.48;24.40;;;;;;;9.19;100.00;98808.01;2141365;83;21011;-85
2022/10/24 00:52:45;;;;;;;33.90;24.65;;;;;;;9.22;100.00;98815.50;2138940;83;21022;-88
2022/10/24 00:55:46;;;;;;;31.77;22.45;;;;;;;9.23;100.00;98807.48;2138109;83;20964;-90
2022/10/24 00:58:47;;;;;;;31.10;23.07;;;;;;;9.26;100.00;98800.64;2137978;83;21082;-90
2022/10/24 01:01:48;;;;;;;32.55;24.05;;;;;;;9.30;100.00;98791.47;2140151;83;21046;-86
2022/10/24 01:04:48;;;;;;;32.30;22.58;;;;;;;9.30;100.00;98794.58;2140828;83;20961;-85
2022/10/24 01:07:49;;;;;;;34.73;23.45;;;;;;;9.29;100.00;98790.34;2139976;83;21069;-88
2022/10/24 01:10:50;;;;;;;29.20;22.67;;;;;;;9.32;100.00;98787.38;2138525;82;20988;-88
2022/10/24 01:13:51;;;;;;;28.15;21.70;;;;;;;9.32;100.00;98786.07;2139256;83;20955;-87
2022/10/24 01:16:51;;;;;;;32.17;23.57;;;;;;;9.32;100.00;98793.41;2138850;83;21428;-87
2022/10/24 01:19:52;;;;;;;32.67;24.52;;;;;;;9.29;100.00;98787.23;2138261;83;20974;-86
2022/10/24 01:22:53;;;;;;;29.55;22.85;;;;;;;9.28;100.00;98791.32;2138246;83;20991;-88
2022/10/24 01:25:54;;;;;;;30.30;23.35;;;;;;;9.27;100.00;98791.00;2139789;83;21026;-85
2022/10/24 01:28:54;;;;;;;32.33;22.80;;;;;;;9.24;100.00;98792.16;2140608;83;20991;-85
2022/10/24 01:31:55;;;;;;;30.37;23.30;;;;;;;9.21;100.00;98794.28;2140614;83;21047;-86
2022/10/24 01:34:56;;;;;;;33.53;23.22;;;;;;;9.18;100.00;98786.79;2103269;82;21125;-90
2022/10/24 01:37:56;;;;;;;28.67;23.02;;;;;;;9.18;100.00;98780.26;2045870;86;20970;-91
2022/10/24 01:40:57;;;;;;;30.72;23.47;;;;;;;9.14;100.00;98779.77;2045824;87;21037;-90
2022/10/24 01:44:01;;;;;;;30.05;23.22;;;;;;;9.15;100.00;98777.99;2045757;87;20998;-91
2022/10/24 01:47:19;;;;;;;29.00;22.17;;;;;;;9.17;100.00;98768.19;2045932;87;21206;-91
2022/10/24 01:50:19;;;;;;;26.37;21.25;;;;;;;9.16;100.00;98756.92;2046898;87;21033;-89
2022/10/24 01:53:20;;;;;;;31.82;23.70;;;;;;;9.15;100.00;98759.22;2050215;86;21308;-92
2022/10/24 01:56:21;;;;;;;36.25;24.27;;;;;;;9.13;100.00;98748.09;2050056;86;21025;-89
2022/10/24 01:59:22;;;;;;;31.65;23.20;;;;;;;9.15;100.00;98748.77;2045782;87;21085;-90
2022/10/24 02:02:23;;;;;;;34.27;23.75;;;;;;;9.17;100.00;98745.98;2027051;87;21056;-91
2022/10/24 02:05:23;;;;;;;27.65;23.30;;;;;;;9.18;100.00;98746.30;2045712;87;20985;-92
2022/10/24 02:08:24;;;;;;;34.25;24.07;;;;;;;9.20;100.00;98746.94;2045836;87;21006;-91
2022/10/24 02:11:25;;;;;;;29.87;23.60;;;;;;;9.22;100.00;98745.77;2045731;87;21048;-90
2022/10/24 02:14:26;;;;;;;31.95;23.55;;;;;;;9.22;100.00;98744.47;2045768;87;20958;-91
2022/10/24 02:17:27;;;;;;;28.30;22.65;;;;;;;9.22;100.00;98747.58;2045733;87;21555;-91
2022/10/24 02:20:28;;;;;;;31.77;23.42;;;;;;;9.18;100.00;98733.23;2045757;86;20997;-91
2022/10/24 02:23:29;;;;;;;33.48;24.72;;;;;;;9.18;100.00;98739.77;2045721;87;21048;-91
2022/10/24 02:26:29;;;;;;;31.70;24.57;;;;;;;9.16;100.00;98735.21;2045705;87;21036;-90
2022/10/24 02:29:30;;;;;;;32.60;24.60;;;;;;;9.18;100.00;98737.97;2045725;87;20966;-92
2022/10/24 02:32:31;;;;;;;37.78;25.85;;;;;;;9.18;100.00;98731.93;2046459;87;21017;-92
2022/10/24 02:35:32;;;;;;;30.88;22.13;;;;;;;9.20;100.00;98733.88;2051502;86;21077;-90
2022/10/24 02:38:32;;;;;;;31.30;23.50;;;;;;;9.19;100.00;98726.53;2060930;86;22144;-91
2022/10/24 02:41:33;;;;;;;32.90;22.90;;;;;;;9.17;100.00;98719.86;2060428;86;21040;-91
2022/10/24 02:44:34;;;;;;;31.45;22.80;;;;;;;9.13;100.00;98721.48;2060931;86;20989;-92
2022/10/24 02:47:35;;;;;;;33.65;25.35;;;;;;;9.12;100.00;98719.05;2061346;86;21080;-91
2022/10/24 02:50:36;;;;;;;35.70;24.35;;;;;;;9.09;100.00;98713.67;2062431;86;21036;-89
2022/10/24 02:53:36;;;;;;;35.78;24.70;;;;;;;9.12;100.00;98715.13;2062729;86;20969;-89
2022/10/24 02:56:37;;;;;;;30.12;23.87;;;;;;;9.13;100.00;98714.14;2063655;86;21048;-90
2022/10/24 02:59:38;;;;;;;28.60;21.48;;;;;;;9.12;100.00;98712.52;2060969;86;21015;-91
2022/10/24 03:02:38;;;;;;;30.55;21.48;;;;;;;9.11;100.00;98713.50;2062747;86;21063;-91
2022/10/24 03:05:39;;;;;;;27.67;21.37;;;;;;;9.08;100.00;98702.09;2062143;86;21079;-90
2022/10/24 03:08:40;;;;;;;30.02;22.87;;;;;;;9.06;100.00;98709.30;2061002;86;20997;-91
2022/10/24 03:11:41;;;;;;;28.30;21.45;;;;;;;9.03;100.00;98710.92;2060801;86;21048;-92
2022/10/24 03:14:41;;;;;;;29.18;21.82;;;;;;;9.01;100.00;98701.95;2061078;86;21570;-91
2022/10/24 03:17:42;;;;;;;27.02;20.75;;;;;;;9.03;100.00;98707.00;2061624;86;21047;-91
2022/10/24 03:20:43;;;;;;;26.70;22.22;;;;;;;9.04;100.00;98709.94;2061682;86;21004;-91
2022/10/24 03:23:44;;;;;;;28.25;22.60;;;;;;;9.06;100.00;98718.44;2060873;86;21092;-90
2022/10/24 03:26:45;;;;;;;24.92;20.97;;;;;;;9.08;100.00;98713.85;2060882;85;21626;-92
2022/10/24 03:29:45;;;;;;;25.72;21.20;;;;;;;9.10;100.00;98714.00;2061026;86;21036;-91
2022/10/24 03:32:46;;;;;;;26.82;20.55;;;;;;;9.11;100.00;98716.92;2060961;85;20993;-91
2022/10/24 03:35:47;;;;;;;25.90;21.40;;;;;;;9.11;100.00;98708.28;2054537;86;21299;-92
2022/10/24 03:38:48;;;;;;;27.10;21.68;;;;;;;9.09;100.00;98701.11;2048878;87;20974;-89
2022/10/24 03:41:48;;;;;;;27.00;20.62;;;;;;;9.11;100.00;98697.33;2048093;87;21528;-92
2022/10/24 03:44:49;;;;;;;23.47;18.75;;;;;;;9.12;100.00;98695.04;2046213;87;21085;-92
2022/10/24 03:47:50;;;;;;;25.50;20.65;;;;;;;9.08;100.00;98696.38;2045938;87;21026;-91
2022/10/24 03:50:50;;;;;;;26.48;20.97;;;;;;;9.07;100.00;98694.75;2045818;87;21025;-92
2022/10/24 03:53:51;;;;;;;27.82;21.80;;;;;;;9.11;100.00;98701.75;2045690;87;21064;-92
2022/10/24 03:56:52;;;;;;;27.95;21.62;;;;;;;9.13;100.00;98695.85;2045868;86;20974;-92
2022/10/24 03:59:53;;;;;;;26.62;21.70;;;;;;;9.15;100.00;98695.70;2045841;86;21582;-92
2022/10/24 04:02:54;;;;;;;26.80;21.52;;;;;;;9.18;100.00;98690.94;2045820;87;20985;-92
2022/10/24 04:05:54;;;;;;;28.42;22.95;;;;;;;9.18;100.00;98687.52;2045802;87;20989;-93
2022/10/24 04:08:56;;;;;;;28.73;21.37;;;;;;;9.21;100.00;98683.25;2045743;87;21025;-90
2022/10/24 04:11:56;;;;;;;27.30;22.40;;;;;;;9.23;100.00;98681.27;2045668;87;21105;-92
2022/10/24 04:14:57;;;;;;;28.90;22.85;;;;;;;9.24;100.00;98686.35;2047822;87;21467;-88
2022/10/24 04:17:58;;;;;;;28.98;22.75;;;;;;;9.28;100.00;98687.63;2049238;87;20989;-88
2022/10/24 04:20:59;;;;;;;30.20;22.55;;;;;;;9.32;100.00;98681.05;2049475;87;20981;-90
2022/10/24 04:23:59;;;;;;;28.57;21.82;;;;;;;9.35;100.00;98685.14;2049325;87;21021;-88
2022/10/24 04:27:00;;;;;;;30.68;23.60;;;;;;;9.36;100.00;98677.63;2049283;87;21029;-88
2022/10/24 04:30:01;;;;;;;30.35;22.02;;;;;;;9.37;100.00;98680.55;2049032;87;21033;-89
2022/10/24 04:33:01;;;;;;;28.77;21.90;;;;;;;9.38;100.00;98671.23;2048929;87;20993;-89
2022/10/24 04:36:02;;;;;;;33.90;22.17;;;;;;;9.42;100.00;98673.02;2053593;86;21057;-90
2022/10/24 04:39:03;;;;;;;28.57;21.93;;;;;;;9.44;100.00;98674.16;2063483;86;21053;-89
2022/10/24 04:42:04;;;;;;;28.17;22.35;;;;;;;9.42;100.00;98663.88;2064040;86;20985;-89
2022/10/24 04:45:04;;;;;;;28.98;21.85;;;;;;;9.43;100.00;98650.31;2064465;86;20996;-89
2022/10/24 04:48:05;;;;;;;29.45;23.77;;;;;;;9.43;100.00;98657.66;2064536;86;20969;-90
2022/10/24 04:51:06;;;;;;;28.02;22.17;;;;;;;9.44;100.00;98659.28;2064423;86;21009;-89
2022/10/24 04:54:07;;;;;;;30.72;22.40;;;;;;;9.44;100.00;98659.78;2062542;86;21084;-91
2022/10/24 04:57:08;;;;;;;26.05;21.77;;;;;;;9.42;100.00;98666.49;2043829;86;21065;-91
2022/10/24 05:00:09;;;;;;;28.15;22.82;;;;;;;9.40;100.00;98660.59;2061023;86;21016;-91
2022/10/24 05:03:09;;;;;;;26.95;21.80;;;;;;;9.39;100.00;98659.78;2062659;86;21001;-89
2022/10/24 05:06:10;;;;;;;28.23;21.48;;;;;;;9.39;100.00;98656.36;2063757;86;20984;-89
2022/10/24 05:09:11;;;;;;;28.55;22.58;;;;;;;9.39;100.00;98653.75;2061713;86;21064;-91
2022/10/24 05:12:12;;;;;;;29.55;24.05;;;;;;;9.40;100.00;98649.66;2060998;86;21048;-91
2022/10/24 05:15:17;;;;;;;28.87;21.33;;;;;;;9.43;100.00;98652.93;2060958;85;20977;-91
2022/10/24 05:18:18;;;;;;;27.48;20.80;;;;;;;9.44;100.00;98652.75;2061989;86;21017;-89
2022/10/24 05:21:18;;;;;;;27.22;21.27;;;;;;;9.45;100.00;98650.45;2062811;86;20989;-90
2022/10/24 05:24:19;;;;;;;24.25;19.75;;;;;;;9.44;100.00;98639.68;2061074;86;21032;-91
2022/10/24 05:27:23;;;;;;;27.87;20.70;;;;;;;9.43;100.00;98626.30;2060996;86;20992;-91
2022/10/24 05:30:22;;;;;;;28.05;20.52;;;;;;;9.42;100.00;98636.44;2060846;86;21093;-91
2022/10/24 05:33:23;;;;;;;28.10;21.55;;;;;;;9.44;100.00;98640.98;2060967;86;21072;-92
2022/10/24 05:36:24;;;;;;;26.50;20.65;;;;;;;9.48;100.00;98641.44;2047108;85;21017;-88
2022/10/24 05:39:25;;;;;;;28.10;21.80;;;;;;;9.51;100.00;98645.84;2027481;88;21543;-89
2022/10/24 05:42:25;;;;;;;27.00;19.92;;;;;;;9.57;100.00;98654.78;2029845;88;21042;-88
2022/10/24 05:45:26;;;;;;;27.10;20.77;;;;;;;9.60;100.00;98651.34;2028765;86;21519;-90
2022/10/24 05:48:27;;;;;;;23.73;19.73;;;;;;;9.62;100.00;98653.77;2026544;88;20985;-90
2022/10/24 05:51:28;;;;;;;21.52;18.92;;;;;;;9.63;100.00;98648.36;2026270;88;21526;-90
2022/10/24 05:54:29;;;;;;;27.22;19.15;;;;;;;9.62;100.00;98649.35;2026310;88;21049;-90
2022/10/24 05:57:29;;;;;;;25.27;20.10;;;;;;;9.67;100.00;98646.20;2026426;88;21048;-89
2022/10/24 06:00:32;;;;;;;22.02;17.77;;;;;;;9.71;100.00;98651.91;2026465;88;21001;-90
2022/10/24 06:03:33;;;;;;;25.50;19.05;;;;;;;9.72;100.00;98647.81;2026391;88;21020;-85
2022/10/24 06:06:34;;;;;;;23.55;18.75;;;;;;;9.74;100.00;98640.59;2026283;88;21537;-88
2022/10/24 06:09:34;;;;;;;21.10;17.85;;;;;;;9.77;100.00;98652.00;2026346;86;20993;-86
2022/10/24 06:12:35;;;;;;;23.15;19.25;;;;;;;9.86;100.00;98656.17;2026311;88;21044;-89
2022/10/24 06:15:36;;;;;;;22.65;18.12;;;;;;;9.90;100.00;98657.97;2026176;88;21535;-88
2022/10/24 06:18:36;;;;;;;21.60;18.12;;;;;;;9.97;100.00;98659.70;2026361;88;21448;-89
2022/10/24 06:21:37;;;;;;;22.37;18.17;;;;;;;10.07;100.00;98663.88;2026258;88;21136;-90
2022/10/24 06:24:38;;;;;;;23.90;18.62;;;;;;;10.18;100.00;98669.98;2026224;86;21507;-88
2022/10/24 06:27:39;;;;;;;22.20;17.67;;;;;;;10.30;100.00;98669.88;2026249;88;21369;-89
2022/10/24 06:30:39;;;;;;;24.98;17.92;;;;;;;10.41;100.00;98683.83;2026291;88;21068;-89
2022/10/24 06:33:40;;;;;;;21.10;17.27;;;;;;;10.54;100.00;98677.99;2026420;88;21002;-89
2022/10/24 06:36:41;;;;;;;22.58;17.37;;;;;;;10.67;100.00;98676.86;2025219;86;21536;-89
2022/10/24 06:39:42;;;;;;;19.37;16.87;;;;;;;10.81;100.00;98685.72;2023587;88;21077;-89
2022/10/24 06:42:42;;;;;;;26.33;16.93;;;;;;;10.94;100.00;98695.55;2025526;88;21034;-89
2022/10/24 06:45:43;;;;;;;23.25;15.83;;;;;;;11.11;100.00;98684.68;2026015;88;21027;-89
2022/10/24 06:48:44;;;;;;;21.95;15.78;;;;;;;11.31;100.00;98688.02;2024213;88;20993;-90
2022/10/24 06:51:45;;;;;;;23.07;15.83;;;;;;;11.47;100.00;98689.12;2023464;87;21180;-90
2022/10/24 06:54:46;;;;;;;24.47;17.32;;;;;;;11.61;100.00;98689.58;2023374;88;20985;-91
2022/10/24 06:57:46;;;;;;;18.85;14.58;;;;;;;11.70;100.00;98681.06;2023513;88;21461;-90
2022/10/24 07:00:47;;;;;;;16.87;14.07;;;;;;;11.79;100.00;98693.55;2023547;88;21028;-89
2022/10/24 07:03:48;;;;;;;17.73;14.93;;;;;;;11.89;100.00;98683.62;2023610;88;21512;-90
2022/10/24 07:06:49;;;;;;;19.60;13.58;;;;;;;11.96;100.00;98681.84;2023717;88;21035;-90
2022/10/24 07:09:49;;;;;;;17.48;13.70;;;;;;;12.12;100.00;98679.45;2023548;88;21064;-89
2022/10/24 07:12:50;;;;;;;16.30;14.55;;;;;;;12.33;100.00;98687.78;2023372;88;21025;-89
2022/10/24 07:15:53;;;;;;;19.35;14.95;;;;;;;12.58;100.00;98685.03;2023499;88;21020;-90
2022/10/24 07:18:54;;;;;;;20.20;15.80;;;;;;;12.84;100.00;98669.11;2023601;87;21140;-90
2022/10/24 07:21:54;;;;;;;17.02;14.10;;;;;;;13.02;100.00;98682.54;2024092;88;21029;-90
2022/10/24 07:24:55;;;;;;;17.98;13.72;;;;;;;13.20;100.00;98679.41;2023529;88;21103;-89
2022/10/24 07:27:57;;;;;;;18.17;13.20;;;;;;;13.31;100.00;98667.80;2023282;88;21180;-89
2022/10/24 07:30:58;;;;;;;16.48;12.05;;;;;;;13.42;100.00;98655.89;2023643;88;21028;-89
2022/10/24 07:33:58;;;;;;;15.20;13.13;;;;;;;13.50;100.00;98651.77;2023588;88;21026;-91
2022/10/24 07:36:59;;;;;;;18.80;13.28;;;;;;;13.55;100.00;98680.12;2023744;85;21104;-89
2022/10/24 07:40:00;;;;;;;16.48;13.45;;;;;;;13.58;100.00;98656.84;2024067;87;21025;-89
2022/10/24 07:43:01;;;;;;;17.15;12.78;;;;;;;13.60;100.00;98654.00;2024433;88;21571;-88
2022/10/24 07:46:02;;;;;;;18.60;14.07;;;;;;;13.63;100.00;98662.84;2025990;88;21516;-85
2022/10/24 07:49:02;;;;;;;16.25;13.68;;;;;;;13.68;100.00;98663.53;2025113;88;21004;-87
2022/10/24 07:52:03;;;;;;;13.88;12.37;;;;;;;13.71;100.00;98649.97;2024631;88;21060;-87
2022/10/24 07:55:04;;;;;;;16.60;12.33;;;;;;;13.74;100.00;98639.06;2024482;88;21531;-87
2022/10/24 07:58:05;;;;;;;15.35;12.93;;;;;;;13.72;100.00;98646.36;2023707;87;21037;-87
2022/10/24 08:01:05;;;;;;;18.02;12.28;;;;;;;13.78;100.00;98656.86;2023506;88;21044;-87
2022/10/24 08:04:06;;;;;;;19.57;13.40;;;;;;;13.89;100.00;98662.84;2023705;88;20989;-88
2022/10/24 08:07:11;;;;;;;14.10;11.93;;;;;;;13.97;100.00;98661.83;2023569;88;21068;-87
2022/10/24 08:10:09;;;;;;;16.05;12.98;;;;;;;14.08;100.00;98670.46;2022897;88;21139;-88
2022/10/24 08:13:10;;;;;;;16.00;12.58;;;;;;;14.22;100.00;98664.67;2023436;88;21004;-87
2022/10/24 08:16:11;;;;;;;17.27;13.62;;;;;;;14.40;100.00;98655.62;2023430;88;21056;-87
2022/10/24 08:19:12;;;;;;;18.32;13.40;;;;;;;14.59;100.00;98643.97;2023359;88;20989;-88
2022/10/24 08:22:13;;;;;;;15.65;12.03;;;;;;;14.72;100.00;98646.08;2023422;88;21090;-88
2022/10/24 08:25:14;;;;;;;16.20;12.35;;;;;;;14.84;100.00;98640.96;2023457;88;21010;-87
2022/10/24 08:28:14;;;;;;;13.48;10.95;;;;;;;14.97;100.00;98647.48;2023343;88;21481;-88
2022/10/24 08:31:15;;;;;;;15.48;11.25;;;;;;;15.11;100.00;98652.72;2023457;88;21092;-87
2022/10/24 08:34:16;;;;;;;16.15;11.48;;;;;;;15.24;100.00;98647.37;2023310;88;21038;-87
2022/10/24 08:37:17;;;;;;;13.70;10.90;;;;;;;15.36;100.00;98644.35;2032463;86;21056;-86
2022/10/24 08:40:18;;;;;;;13.38;10.78;;;;;;;15.50;100.00;98646.41;2045589;87;20962;-87
2022/10/24 08:43:20;;;;;;;14.83;10.50;;;;;;;15.63;100.00;98647.19;2045114;86;21504;-87
2022/10/24 08:46:21;;;;;;;12.85;10.55;;;;;;;15.77;100.00;98649.72;2047194;87;21081;-86
2022/10/24 08:49:22;;;;;;;15.15;12.05;;;;;;;15.96;100.00;98651.91;2047801;87;21033;-86
2022/10/24 08:52:23;;;;;;;21.68;15.55;;;;;;;16.17;100.00;98659.44;2046367;86;21331;-89
2022/10/24 08:55:24;;;;;;;16.20;11.73;;;;;;;16.36;100.00;98660.28;2045722;87;21073;-88
2022/10/24 08:58:25;;;;;;;13.25;9.90;;;;;;;16.49;100.00;98657.53;2045712;87;21088;-89
2022/10/24 09:01:26;;;;;;;14.53;11.22;;;;;;;16.63;100.00;98650.26;2045510;87;21054;-90
2022/10/24 09:04:27;;;;;;;12.25;9.20;;;;;;;16.77;100.00;98652.58;2045690;87;21037;-89
2022/10/24 09:07:27;;;;;;;15.78;11.83;;;;;;;16.91;100.00;98650.58;2046804;86;21062;-88
2022/10/24 09:10:28;;;;;;;8.78;7.83;;;;;;;17.04;100.00;98665.50;2045796;87;21051;-89
2022/10/24 09:13:29;;;;;;;11.80;8.73;;;;;;;17.14;100.00;98678.20;2045767;87;21041;-88
2022/10/24 09:16:30;;;;;;;11.75;8.03;;;;;;;17.18;100.00;98682.80;2045935;87;21064;-89
2022/10/24 09:19:30;;;;;;;10.55;7.70;;;;;;;17.20;100.00;98692.67;2045577;87;21012;-90
2022/10/24 09:22:31;;;;;;;10.03;8.70;;;;;;;17.24;100.00;98686.41;2046151;87;21033;-89
2022/10/24 09:25:32;;;;;;;9.70;6.87;;;;;;;17.31;100.00;98662.80;2045857;86;21122;-89
2022/10/24 09:28:33;;;;;;;14.03;7.35;;;;;;;17.37;100.00;98673.52;2045742;87;20989;-89
2022/10/24 09:31:34;;;;;;;9.10;7.22;;;;;;;17.38;100.00;98653.98;2045625;87;21033;-89
2022/10/24 09:34:34;;;;;;;10.60;8.10;;;;;;;17.45;100.00;98638.27;2045720;87;20985;-89
2022/10/24 09:37:35;;;;;;;8.70;7.65;;;;;;;17.53;100.00;98651.19;2051360;86;21040;-87
2022/10/24 09:40:36;;;;;;;10.10;7.17;;;;;;;17.54;100.00;98650.16;2060742;86;21504;-87
2022/10/24 09:43:37;;;;;;;9.10;6.90;;;;;;;17.57;100.00;98659.51;2060950;86;21094;-88
2022/10/24 09:46:40;;;;;;;8.38;6.08;;;;;;;17.60;100.00;98653.75;2060796;86;20977;-88
2022/10/24 09:49:41;;;;;;;10.75;7.53;;;;;;;17.66;100.00;98659.48;2063263;86;21068;-88
2022/10/24 09:52:42;;;;;;;8.45;6.70;;;;;;;17.73;100.00;98664.16;2062049;86;21097;-88
2022/10/24 09:55:43;;;;;;;9.63;7.37;;;;;;;17.80;100.00;98669.38;2060658;86;21021;-88
2022/10/24 09:58:43;;;;;;;9.80;7.53;;;;;;;17.87;100.00;98684.65;2060495;86;21068;-89
2022/10/24 10:01:44;;;;;;;12.73;7.92;;;;;;;17.96;100.00;98683.81;2060645;86;21528;-88
2022/10/24 10:04:45;;;;;;;11.73;8.45;;;;;;;17.99;100.00;98672.22;2060728;85;21519;-88
2022/10/24 10:07:47;;;;;;;10.20;6.87;;;;;;;18.03;100.00;98659.34;2043617;86;21537;-89
2022/10/24 10:10:48;;;;;;;7.92;7.12;;;;;;;18.06;100.00;98658.36;2060675;86;21634;-88
2022/10/24 10:13:52;;;;;;;11.57;9.10;;;;;;;18.12;100.00;98660.63;2060824;86;21025;-89
2022/10/24 10:16:51;;;;;;;14.35;10.10;;;;;;;18.13;100.00;98664.89;2043247;86;21120;-87
2022/10/24 10:19:52;;;;;;;11.05;9.00;;;;;;;18.13;100.00;98654.29;2060847;86;20997;-88
2022/10/24 10:22:53;;;;;;;13.00;8.58;;;;;;;18.17;100.00;98654.10;2060675;85;21576;-87
2022/10/24 10:25:54;;;;;;;11.83;8.33;;;;;;;18.23;100.00;98659.82;2040712;86;21088;-88
2022/10/24 10:28:55;;;;;;;10.35;7.47;;;;;;;18.32;100.00;98654.46;2060813;86;21013;-89
2022/10/24 10:31:55;;;;;;;18.48;9.43;;;;;;;18.44;100.00;98645.98;2060765;86;21040;-91
2022/10/24 10:34:56;;;;;;;16.17;10.08;;;;;;;18.59;100.00;98646.03;2061033;85;21473;-93
2022/10/24 10:37:57;;;;;;;11.57;8.45;;;;;;;18.72;100.00;98646.61;2061909;85;21477;-91
2022/10/24 10:40:58;;;;;;;11.10;7.67;;;;;;;18.86;100.00;98655.12;2061073;86;21037;-89
2022/10/24 10:43:59;;;;;;;9.08;6.70;;;;;;;18.96;100.00;98657.98;2060720;86;21036;-92
2022/10/24 10:47:00;;;;;;;9.60;6.97;;;;;;;19.06;100.00;98667.19;2060809;86;20990;-90
2022/10/24 10:50:00;;;;;;;9.13;6.85;;;;;;;19.10;100.00;98675.75;2061473;86;21072;-90
2022/10/24 10:53:01;;;;;;;9.70;6.90;;;;;;;19.18;100.00;98682.55;2064309;86;21064;-88
2022/10/24 10:56:02;;;;;;;10.80;6.90;;;;;;;19.22;100.00;98670.43;2063386;86;21001;-89
2022/10/24 10:59:03;;;;;;;8.48;6.72;;;;;;;19.26;100.00;98668.91;2061091;86;21076;-89
2022/10/24 11:02:03;;;;;;;11.43;6.53;;;;;;;19.31;100.00;98679.11;2060900;86;21020;-91
2022/10/24 11:05:04;;;;;;;8.28;5.78;;;;;;;19.35;100.00;98667.48;2060815;86;21476;-92
2022/10/24 11:08:05;;;;;;;15.35;10.20;;;;;;;19.36;100.00;98663.78;2060914;86;21028;-92
2022/10/24 11:11:06;;;;;;;7.53;5.42;;;;;;;19.37;100.00;98662.73;2062279;86;21531;-91
2022/10/24 11:14:07;;;;;;;5.90;5.25;;;;;;;19.38;100.00;98660.36;2061249;86;21021;-91
2022/10/24 11:17:07;;;;;;;7.17;5.33;;;;;;;19.39;100.00;98653.23;2060805;86;21025;-90
2022/10/24 11:20:08;;;;;;;9.88;4.72;;;;;;;19.39;100.00;98650.05;2060972;86;21488;-90
2022/10/24 11:23:09;;;;;;;11.85;7.70;;;;;;;19.37;100.00;98644.16;2061814;86;21020;-91
2022/10/24 11:26:09;;;;;;;6.83;5.17;;;;;;;19.34;100.00;98636.67;2062396;86;21020;-91
2022/10/24 11:29:10;;;;;;;5.00;4.55;;;;;;;19.31;100.00;98635.31;2061351;86;21008;-90
2022/10/24 11:32:11;;;;;;;8.13;4.67;;;;;;;19.31;100.00;98633.17;2060688;86;21084;-91
2022/10/24 11:35:12;;;;;;;4.90;4.40;;;;;;;19.24;100.00;98625.88;2060774;86;21544;-91
2022/10/24 11:38:12;;;;;;;8.13;4.80;;;;;;;19.17;100.00;98629.98;2044884;86;21096;-92
2022/10/24 11:41:13;;;;;;;6.33;4.75;;;;;;;19.08;100.00;98627.95;2023424;88;21029;-91
2022/10/24 11:44:14;;;;;;;6.40;4.08;;;;;;;19.00;100.00;98620.64;2023592;88;21061;-91
2022/10/24 11:47:15;;;;;;;9.55;5.92;;;;;;;18.93;100.00;98627.15;2023805;88;21563;-88
2022/10/24 11:50:16;;;;;;;5.53;4.60;;;;;;;18.88;100.00;98627.03;2026584;88;21017;-88
2022/10/24 11:53:16;;;;;;;5.00;4.58;;;;;;;18.84;100.00;98629.36;2026998;88;20993;-90
2022/10/24 11:56:17;;;;;;;7.97;4.60;;;;;;;18.89;100.00;98628.64;2026527;88;21040;-88
2022/10/24 11:59:22;;;;;;;6.30;4.75;;;;;;;18.93;100.00;98621.32;2024651;88;20993;-91
2022/10/24 12:02:21;;;;;;;9.83;5.28;;;;;;;18.96;100.00;98624.82;2023718;88;21058;-91
2022/10/24 12:05:21;;;;;;;5.87;3.92;;;;;;;19.00;100.00;98620.64;2023536;87;21060;-90
2022/10/24 12:08:22;;;;;;;5.67;4.72;;;;;;;19.06;100.00;98614.92;2023396;88;21534;-91
2022/10/24 12:11:23;;;;;;;7.80;4.10;;;;;;;19.13;100.00;98613.47;2023508;88;21071;-90
2022/10/24 12:14:24;;;;;;;5.53;4.78;;;;;;;19.20;100.00;98611.45;2023565;88;21025;-90
2022/10/24 12:17:24;;;;;;;5.85;4.62;;;;;;;19.24;100.00;98608.09;2023660;88;21029;-91
2022/10/24 12:20:25;;;;;;;3.67;3.33;;;;;;;19.30;100.00;98607.68;2023465;87;21044;-91
2022/10/24 12:23:30;;;;;;;6.62;3.70;;;;;;;19.31;100.00;98606.11;2023590;88;21491;-90
2022/10/24 12:26:31;;;;;;;7.12;3.60;;;;;;;19.32;100.00;98605.59;2023063;88;21643;-91
2022/10/24 12:29:32;;;;;;;7.83;4.47;;;;;;;19.33;100.00;98603.21;2023352;88;20966;-91
2022/10/24 12:32:33;;;;;;;5.40;3.40;;;;;;;19.34;100.00;98606.14;2023406;88;21572;-92
2022/10/24 12:35:34;;;;;;;6.45;4.10;;;;;;;19.33;100.00;98601.36;2023558;88;20993;-92
2022/10/24 12:38:34;;;;;;;6.08;3.92;;;;;;;19.35;100.00;98594.48;2033323;85;21069;-91
2022/10/24 12:41:35;;;;;;;6.03;3.87;;;;;;;19.38;100.00;98591.86;2046816;86;21043;-91
2022/10/24 12:44:36;;;;;;;6.95;3.60;;;;;;;19.39;100.00;98592.17;2045787;86;21053;-92
2022/10/24 12:47:37;;;;;;;5.83;3.50;;;;;;;19.41;100.00;98584.24;2045804;87;21072;-92
2022/10/24 12:50:38;;;;;;;6.75;4.17;;;;;;;19.46;100.00;98577.67;2045761;86;21121;-90
2022/10/24 12:53:39;;;;;;;6.78;3.85;;;;;;;19.53;100.00;98571.69;2046900;87;21017;-91
2022/10/24 12:56:40;;;;;;;5.17;3.42;;;;;;;19.62;100.00;98572.13;2049342;87;20986;-91
2022/10/24 12:59:40;;;;;;;6.97;3.08;;;;;;;19.70;100.00;98562.96;2048557;87;21005;-92
2022/10/24 13:02:41;;;;;;;6.25;4.00;;;;;;;19.76;100.00;98570.78;2046046;87;21029;-92
2022/10/24 13:05:42;;;;;;;18.52;5.78;;;;;;;19.83;100.00;98572.72;2046082;87;21512;-91
2022/10/24 13:08:43;;;;;;;5.80;4.05;;;;;;;19.89;100.00;98573.62;2046269;87;21021;-92
2022/10/24 13:11:44;;;;;;;4.75;3.83;;;;;;;19.91;100.00;98574.17;2047526;87;21076;-91
2022/10/24 13:14:44;;;;;;;5.12;3.72;;;;;;;19.89;100.00;98572.28;2028517;87;21492;-91
2022/10/24 13:17:45;;;;;;;6.95;3.72;;;;;;;19.87;100.00;98565.89;2046050;87;21017;-85
2022/10/24 13:20:48;;;;;;;4.92;3.62;;;;;;;19.83;100.00;98563.95;2045954;87;21532;-94
2022/10/24 13:23:49;;;;;;;6.15;3.90;;;;;;;19.82;100.00;98567.13;2046554;87;21022;-94
2022/10/24 13:26:52;;;;;;;3.90;3.47;;;;;;;19.79;100.00;98563.64;2046419;87;21041;-90
2022/10/24 13:29:52;;;;;;;4.97;3.62;;;;;;;19.75;100.00;98566.52;2046973;86;21121;-90
2022/10/24 13:32:53;;;;;;;8.55;4.83;;;;;;;19.73;100.00;98574.42;2046267;86;21001;-94
2022/10/24 13:35:53;;;;;;;7.83;4.87;;;;;;;19.67;100.00;98566.91;2045758;87;21112;-95
2022/10/24 13:38:54;;;;;;;11.70;5.03;;;;;;;19.64;100.00;98573.21;2036831;86;21045;-94
2022/10/24 13:41:55;;;;;;;6.85;4.67;;;;;;;19.60;100.00;98568.92;2026666;88;21060;-94
2022/10/24 13:44:56;;;;;;;6.17;4.92;;;;;;;19.55;100.00;98567.47;2026897;88;21024;-94
2022/10/24 13:47:56;;;;;;;5.62;4.40;;;;;;;19.51;100.00;98569.80;2027698;88;21025;-93
2022/10/24 13:50:57;;;;;;;7.05;4.70;;;;;;;19.44;100.00;98571.80;2026888;88;21108;-94